This is the latest recevied weather packets stored in our database for station/object VA5EVR-13. If no packets are shown the sender has not sent any weather packets the latest 10 day(s).
| Time | Temp. | Humidity | Pressure | Rain* | Wind** | Luminosity | Snow |
|---|---|---|---|---|---|---|---|
| 1778253612 | 16.67° C | 44% | 88.8 hPa | 0 mm | - | - | - |
| 1778253012 | 16.67° C | 45% | 88.8 hPa | 0 mm | - | - | - |
| 1778252412 | 16.67° C | 47% | 88.8 hPa | 0 mm | - | - | - |
| 1778251811 | 16.67° C | 47% | 88.8 hPa | 0 mm | - | - | - |
| 1778251212 | 16.67° C | 46% | 88.8 hPa | 0 mm | - | - | - |
| 1778250612 | 16.11° C | 46% | 88.8 hPa | 0 mm | - | - | - |
| 1778249412 | 15° C | 50% | 88.8 hPa | 0 mm | - | - | - |
| 1778248812 | 14.44° C | 52% | 88.8 hPa | 0 mm | - | - | - |
| 1778248212 | 13.33° C | 56% | 88.8 hPa | 0 mm | - | - | - |
| 1778247611 | 12.22° C | 58% | 88.8 hPa | 0 mm | - | - | - |
| 1778247012 | 12.22° C | 59% | 88.8 hPa | 0 mm | - | - | - |
| 1778246412 | 11.67° C | 60% | 88.8 hPa | 0 mm | - | - | - |
| 1778245812 | 10.56° C | 60% | 88.8 hPa | 0 mm | - | - | - |
| 1778245212 | 9.44° C | 61% | 88.8 hPa | 0 mm | - | - | - |
| 1778244612 | 8.89° C | 61% | 88.8 hPa | 0 mm | - | - | - |
| 1778244011 | 7.78° C | 64% | 88.8 hPa | 0 mm | - | - | - |
| 1778243411 | 6.67° C | 67% | 88.8 hPa | 0 mm | - | - | - |
| 1778242812 | 6.67° C | 69% | 88.8 hPa | 0 mm | - | - | - |
| 1778242212 | 6.11° C | 72% | 88.8 hPa | 0 mm | - | - | - |
| 1778241012 | 5° C | 75% | 88.8 hPa | 0 mm | - | - | - |
| 1778240411 | 5° C | 75% | 88.8 hPa | 0 mm | - | - | - |
| 1778239212 | 4.44° C | 76% | 88.8 hPa | 0 mm | - | - | - |
| 1778238612 | 3.89° C | 76% | 88.8 hPa | 0 mm | - | - | - |
| 1778238012 | 4.44° C | 76% | 88.8 hPa | 0 mm | - | - | - |
| 1778237411 | 4.44° C | 76% | 88.8 hPa | 0 mm | - | - | - |
* Rain latest hour (hover to see other rain measurements)
** Current wind speed in m/s (hover to see current wind gust speed)